Emporia, KS

1:25 PM CDT on July 25, 2014 (GMT -0500)
Timmerman School Area (KKSEMPOR4) Elev 1214 ft | 38.43 °N, 96.22 °W | Change Station
Active Advisory: Heat Advisory

Current weather conditions updated 9 minutes ago

Clear
Clear
93.6 °F
Feels Like 99 °F
N
14.3
Wind Variable Wind from SE
Gusts 17.4 mph

Today is forecast to be Much Warmer than yesterday.

Today
High -- | Low -- °F
--% Chance of Precip.
Yesterday
High -- | Low -- °F
Precip. -- in
6:20 AM 8:41 PM
Waning Crescent, 1% visible
Pressure 29.81 in
Visibility 10.0 miles
Clouds Clear
Heat Index 99 °F
Dew Point 69 °F
Humidity 45%
Rainfall 0.00 in
Snow Depth Not available.
UV 11 out of 12
Pollen 7.10 out of 12
Air Quality Not available.
Flu Activity Not available.
METAR KEMP 251753Z AUTO 21021G29KT 10SM CLR 34/20 A2985 RMK AO2 PK WND 21029/1746 SLP094 T03440200 10344 20233 58008

More Conditions Fewer Conditions

Pressure 29.81 in
Visibility 10.0 miles
Clouds Clear
Heat Index 99 °F
Dew Point 69 °F
Humidity 45%
Rainfall 0.00 in
Snow Depth Not available.
UV 11 out of 12
Pollen 7.10 out of 12
Air Quality Not available.
Flu Activity Not available.
METAR KEMP 251753Z AUTO 21021G29KT 10SM CLR 34/20 A2985 RMK AO2 PK WND 21029/1746 SLP094 T03440200 10344 20233 58008

More Conditions Fewer Conditions

10-Day Weather Forecast

Almanac

Astronomy

Jul. 25, 2014 Rise Set
Actual Time 6:20 AM CDT 8:41 PM CDT
Civil Twilight 5:50 AM CDT 9:11 PM CDT
Nautical Twilight 5:13 AM CDT 9:47 PM CDT
Astronomical Twilight 4:33 AM CDT 10:28 PM CDT
Moon 5:20 AM CDT 7:39 PM CDT
Length of Visible Light 15h 20m
Length of Day
14h 20m
Tomorrow will be 1m 40s shorter.
Waning Crescent, 1% of the Moon is Illuminated
Today
Waning Crescent
Jul 26
New
Aug 3
First Quarter
Aug 10
Full
Aug 17
Last Quarter

Today's Extremes

State Highs State Lows

Community

WunderPhotos

Upload Photos

1,737,372 photos uploaded!

Nearby

Snow Depth

Station Depth Elevation
No new snow has been reported.

Earthquake Activity

City Distance Mag. Time & Date
Harper, Kansas 127 miles 3.3 7:24 AM CDT
2014-07-20
Harper, Kansas 126 miles 3.0 7:24 PM CDT
2014-07-19
Minimum magnitude displayed is 2.5.

Coastal Water Temperatures

Place Temperature
No Stations Reporting

Nearby Weather Stations

Station Location Temp. Heat Index Dew Point Humidity Wind Precip. Elev Updated Type
Timmerman School Area, Emporia, KS 93.6 °F 99 °F 69 °F 45% SE  at  14.3 mph 0.00 in / hr 1214 ft 1:16 PM CDT Rapid Fire
East Emporia Kansas, Emporia, KS 97.2 °F 108 °F 74 °F 47% South  at  9.9 mph - / hr 1106 ft 1:21 PM CDT Normal
T-K Weather Station West Hartford, Kansa, Hartford, KS 97.2 °F 109 °F 74 °F 48% NW  at  11.4 mph - / hr 1129 ft 1:11 PM CDT Normal
RAWS TALLGRASS PRAIRIE KS, Strong City, KS 95 °F 101 °F 69 °F 43% SSE  at  20 mph 0.00 in / hr 1230 ft 12:30 PM CDT MADIS

Show More Stations Show Fewer Stations